sensor_id;sensor_type;location;lat;lon;timestamp;P1;durP1;ratioP1;P2;durP2;ratioP2
44169;SDS011;29836;52.286;9.576;2023-05-07T00:01:35;38.97;;;20.75;;
44169;SDS011;29836;52.286;9.576;2023-05-07T00:04:01;36.55;;;19.02;;
44169;SDS011;29836;52.286;9.576;2023-05-07T00:06:27;39.72;;;19.55;;
44169;SDS011;29836;52.286;9.576;2023-05-07T00:08:53;44.90;;;21.10;;
44169;SDS011;29836;52.286;9.576;2023-05-07T00:11:19;39.28;;;19.83;;
44169;SDS011;29836;52.286;9.576;2023-05-07T00:13:45;42.10;;;21.17;;
44169;SDS011;29836;52.286;9.576;2023-05-07T00:16:10;43.80;;;21.27;;
44169;SDS011;29836;52.286;9.576;2023-05-07T00:18:36;41.00;;;19.85;;
44169;SDS011;29836;52.286;9.576;2023-05-07T00:21:01;40.42;;;20.35;;
44169;SDS011;29836;52.286;9.576;2023-05-07T00:23:27;44.58;;;20.83;;
44169;SDS011;29836;52.286;9.576;2023-05-07T00:25:53;39.17;;;20.60;;
44169;SDS011;29836;52.286;9.576;2023-05-07T00:28:18;37.42;;;19.52;;
44169;SDS011;29836;52.286;9.576;2023-05-07T00:30:44;44.30;;;20.13;;
44169;SDS011;29836;52.286;9.576;2023-05-07T00:33:09;35.22;;;18.73;;
44169;SDS011;29836;52.286;9.576;2023-05-07T00:35:35;39.17;;;18.33;;
44169;SDS011;29836;52.286;9.576;2023-05-07T00:38:00;41.50;;;20.42;;
44169;SDS011;29836;52.286;9.576;2023-05-07T00:40:26;36.30;;;19.25;;
44169;SDS011;29836;52.286;9.576;2023-05-07T00:42:51;43.40;;;18.77;;
44169;SDS011;29836;52.286;9.576;2023-05-07T00:45:17;39.80;;;19.58;;
44169;SDS011;29836;52.286;9.576;2023-05-07T00:47:43;43.40;;;20.92;;
44169;SDS011;29836;52.286;9.576;2023-05-07T00:50:09;39.95;;;20.65;;
44169;SDS011;29836;52.286;9.576;2023-05-07T00:52:35;43.95;;;20.23;;
44169;SDS011;29836;52.286;9.576;2023-05-07T00:55:04;42.95;;;19.52;;
44169;SDS011;29836;52.286;9.576;2023-05-07T00:57:32;36.90;;;18.75;;
44169;SDS011;29836;52.286;9.576;2023-05-07T01:00:02;57.55;;;22.00;;
44169;SDS011;29836;52.286;9.576;2023-05-07T01:02:29;45.45;;;21.08;;
44169;SDS011;29836;52.286;9.576;2023-05-07T01:04:55;42.40;;;19.73;;
44169;SDS011;29836;52.286;9.576;2023-05-07T01:07:20;46.67;;;21.05;;
44169;SDS011;29836;52.286;9.576;2023-05-07T01:09:47;39.67;;;20.27;;
44169;SDS011;29836;52.286;9.576;2023-05-07T01:12:13;41.95;;;19.95;;
44169;SDS011;29836;52.286;9.576;2023-05-07T01:14:38;46.35;;;20.27;;
44169;SDS011;29836;52.286;9.576;2023-05-07T01:17:04;38.42;;;18.58;;
44169;SDS011;29836;52.286;9.576;2023-05-07T01:19:29;40.88;;;18.92;;
44169;SDS011;29836;52.286;9.576;2023-05-07T01:21:57;42.75;;;20.70;;
44169;SDS011;29836;52.286;9.576;2023-05-07T01:24:29;48.80;;;21.48;;
44169;SDS011;29836;52.286;9.576;2023-05-07T01:26:56;46.83;;;21.35;;
44169;SDS011;29836;52.286;9.576;2023-05-07T01:29:21;43.97;;;20.60;;
44169;SDS011;29836;52.286;9.576;2023-05-07T01:31:47;46.28;;;21.00;;
44169;SDS011;29836;52.286;9.576;2023-05-07T01:34:13;41.33;;;19.40;;
44169;SDS011;29836;52.286;9.576;2023-05-07T01:36:42;45.85;;;19.42;;
44169;SDS011;29836;52.286;9.576;2023-05-07T01:39:09;46.33;;;20.95;;
44169;SDS011;29836;52.286;9.576;2023-05-07T01:41:35;47.28;;;20.40;;
44169;SDS011;29836;52.286;9.576;2023-05-07T01:44:01;44.20;;;20.65;;
44169;SDS011;29836;52.286;9.576;2023-05-07T01:46:27;52.70;;;22.02;;
44169;SDS011;29836;52.286;9.576;2023-05-07T01:48:54;48.05;;;21.85;;
44169;SDS011;29836;52.286;9.576;2023-05-07T01:51:20;45.10;;;21.88;;
44169;SDS011;29836;52.286;9.576;2023-05-07T01:53:48;51.35;;;23.13;;
44169;SDS011;29836;52.286;9.576;2023-05-07T01:56:16;48.35;;;19.90;;
44169;SDS011;29836;52.286;9.576;2023-05-07T01:58:45;49.13;;;20.95;;
44169;SDS011;29836;52.286;9.576;2023-05-07T02:01:13;50.35;;;20.95;;
44169;SDS011;29836;52.286;9.576;2023-05-07T02:03:39;48.72;;;21.60;;
44169;SDS011;29836;52.286;9.576;2023-05-07T02:06:05;46.72;;;20.55;;
44169;SDS011;29836;52.286;9.576;2023-05-07T02:08:30;43.22;;;20.05;;
44169;SDS011;29836;52.286;9.576;2023-05-07T02:10:56;51.22;;;19.80;;
44169;SDS011;29836;52.286;9.576;2023-05-07T02:13:21;35.25;;;18.38;;
44169;SDS011;29836;52.286;9.576;2023-05-07T02:15:49;40.75;;;19.58;;
44169;SDS011;29836;52.286;9.576;2023-05-07T02:18:16;48.60;;;21.08;;
44169;SDS011;29836;52.286;9.576;2023-05-07T02:20:42;38.95;;;18.00;;
44169;SDS011;29836;52.286;9.576;2023-05-07T02:23:07;38.90;;;19.02;;
44169;SDS011;29836;52.286;9.576;2023-05-07T02:25:33;39.08;;;18.85;;
44169;SDS011;29836;52.286;9.576;2023-05-07T02:27:58;42.28;;;18.40;;
44169;SDS011;29836;52.286;9.576;2023-05-07T02:30:24;35.38;;;17.50;;
44169;SDS011;29836;52.286;9.576;2023-05-07T02:32:50;37.30;;;17.20;;
44169;SDS011;29836;52.286;9.576;2023-05-07T02:35:15;36.60;;;17.08;;
44169;SDS011;29836;52.286;9.576;2023-05-07T02:37:41;32.72;;;15.38;;
44169;SDS011;29836;52.286;9.576;2023-05-07T02:40:06;36.58;;;15.88;;
44169;SDS011;29836;52.286;9.576;2023-05-07T02:42:32;31.45;;;14.50;;
44169;SDS011;29836;52.286;9.576;2023-05-07T02:44:58;28.45;;;14.57;;
44169;SDS011;29836;52.286;9.576;2023-05-07T02:47:24;30.50;;;13.30;;
44169;SDS011;29836;52.286;9.576;2023-05-07T02:49:52;27.70;;;13.77;;
44169;SDS011;29836;52.286;9.576;2023-05-07T02:52:18;28.67;;;14.07;;
44169;SDS011;29836;52.286;9.576;2023-05-07T02:54:43;26.17;;;13.73;;
44169;SDS011;29836;52.286;9.576;2023-05-07T02:57:08;28.98;;;13.48;;
44169;SDS011;29836;52.286;9.576;2023-05-07T02:59:34;26.85;;;12.85;;
44169;SDS011;29836;52.286;9.576;2023-05-07T03:02:00;23.50;;;12.63;;
44169;SDS011;29836;52.286;9.576;2023-05-07T03:04:26;26.75;;;12.38;;
44169;SDS011;29836;52.286;9.576;2023-05-07T03:06:51;22.88;;;11.45;;
44169;SDS011;29836;52.286;9.576;2023-05-07T03:09:17;29.30;;;13.45;;
44169;SDS011;29836;52.286;9.576;2023-05-07T03:11:42;25.10;;;11.93;;
44169;SDS011;29836;52.286;9.576;2023-05-07T03:14:08;26.00;;;12.48;;
44169;SDS011;29836;52.286;9.576;2023-05-07T03:16:33;25.30;;;12.05;;
44169;SDS011;29836;52.286;9.576;2023-05-07T03:18:59;26.15;;;12.90;;
44169;SDS011;29836;52.286;9.576;2023-05-07T03:21:24;26.27;;;13.35;;
44169;SDS011;29836;52.286;9.576;2023-05-07T03:23:51;27.08;;;12.90;;
44169;SDS011;29836;52.286;9.576;2023-05-07T03:26:16;32.20;;;13.85;;
44169;SDS011;29836;52.286;9.576;2023-05-07T03:28:42;28.08;;;12.70;;
44169;SDS011;29836;52.286;9.576;2023-05-07T03:31:07;26.52;;;13.68;;
44169;SDS011;29836;52.286;9.576;2023-05-07T03:33:33;25.80;;;13.27;;
44169;SDS011;29836;52.286;9.576;2023-05-07T03:35:59;28.98;;;14.68;;
44169;SDS011;29836;52.286;9.576;2023-05-07T03:38:25;26.88;;;13.95;;
44169;SDS011;29836;52.286;9.576;2023-05-07T03:40:51;27.35;;;14.05;;
44169;SDS011;29836;52.286;9.576;2023-05-07T03:43:16;25.85;;;14.80;;
44169;SDS011;29836;52.286;9.576;2023-05-07T03:45:42;32.00;;;15.25;;
44169;SDS011;29836;52.286;9.576;2023-05-07T03:48:07;26.98;;;13.63;;
44169;SDS011;29836;52.286;9.576;2023-05-07T03:50:33;31.15;;;14.05;;
44169;SDS011;29836;52.286;9.576;2023-05-07T03:52:58;30.38;;;15.07;;
44169;SDS011;29836;52.286;9.576;2023-05-07T03:55:24;29.17;;;15.25;;
44169;SDS011;29836;52.286;9.576;2023-05-07T03:57:50;32.72;;;16.48;;
44169;SDS011;29836;52.286;9.576;2023-05-07T04:00:16;30.38;;;16.40;;
44169;SDS011;29836;52.286;9.576;2023-05-07T04:02:41;30.95;;;15.82;;
44169;SDS011;29836;52.286;9.576;2023-05-07T04:05:07;33.22;;;15.50;;
44169;SDS011;29836;52.286;9.576;2023-05-07T04:07:33;30.58;;;16.95;;
44169;SDS011;29836;52.286;9.576;2023-05-07T04:09:58;30.58;;;14.27;;
44169;SDS011;29836;52.286;9.576;2023-05-07T04:12:23;28.95;;;15.60;;
44169;SDS011;29836;52.286;9.576;2023-05-07T04:14:49;30.30;;;15.07;;
44169;SDS011;29836;52.286;9.576;2023-05-07T04:17:15;30.73;;;15.27;;
44169;SDS011;29836;52.286;9.576;2023-05-07T04:19:40;26.42;;;13.52;;
44169;SDS011;29836;52.286;9.576;2023-05-07T04:22:10;30.15;;;15.23;;
44169;SDS011;29836;52.286;9.576;2023-05-07T04:24:35;29.60;;;14.57;;
44169;SDS011;29836;52.286;9.576;2023-05-07T04:27:01;29.67;;;15.27;;
44169;SDS011;29836;52.286;9.576;2023-05-07T04:29:26;31.83;;;14.30;;
44169;SDS011;29836;52.286;9.576;2023-05-07T04:31:53;30.42;;;14.18;;
44169;SDS011;29836;52.286;9.576;2023-05-07T04:34:21;30.52;;;15.25;;
44169;SDS011;29836;52.286;9.576;2023-05-07T04:36:46;33.15;;;14.48;;
44169;SDS011;29836;52.286;9.576;2023-05-07T04:39:12;31.77;;;15.60;;
44169;SDS011;29836;52.286;9.576;2023-05-07T04:41:38;26.33;;;14.13;;
44169;SDS011;29836;52.286;9.576;2023-05-07T04:44:04;25.98;;;14.15;;
44169;SDS011;29836;52.286;9.576;2023-05-07T04:46:29;28.50;;;14.50;;
44169;SDS011;29836;52.286;9.576;2023-05-07T04:48:55;30.45;;;14.82;;
44169;SDS011;29836;52.286;9.576;2023-05-07T04:51:20;28.17;;;14.88;;
44169;SDS011;29836;52.286;9.576;2023-05-07T04:53:46;32.65;;;14.82;;
44169;SDS011;29836;52.286;9.576;2023-05-07T04:56:11;31.95;;;15.00;;
44169;SDS011;29836;52.286;9.576;2023-05-07T04:58:37;26.50;;;13.98;;
44169;SDS011;29836;52.286;9.576;2023-05-07T05:01:03;27.95;;;14.52;;
44169;SDS011;29836;52.286;9.576;2023-05-07T05:03:28;29.00;;;15.50;;
44169;SDS011;29836;52.286;9.576;2023-05-07T05:05:55;29.77;;;14.77;;
44169;SDS011;29836;52.286;9.576;2023-05-07T05:08:20;27.40;;;14.13;;
44169;SDS011;29836;52.286;9.576;2023-05-07T05:10:46;27.88;;;12.77;;
44169;SDS011;29836;52.286;9.576;2023-05-07T05:13:13;27.73;;;13.32;;
44169;SDS011;29836;52.286;9.576;2023-05-07T05:15:39;24.85;;;13.18;;
44169;SDS011;29836;52.286;9.576;2023-05-07T05:18:04;26.60;;;13.55;;
44169;SDS011;29836;52.286;9.576;2023-05-07T05:20:30;29.10;;;13.40;;
44169;SDS011;29836;52.286;9.576;2023-05-07T05:22:55;31.27;;;15.07;;
44169;SDS011;29836;52.286;9.576;2023-05-07T05:25:21;25.58;;;13.93;;
44169;SDS011;29836;52.286;9.576;2023-05-07T05:27:46;23.95;;;13.10;;
44169;SDS011;29836;52.286;9.576;2023-05-07T05:30:12;28.88;;;14.18;;
44169;SDS011;29836;52.286;9.576;2023-05-07T05:32:38;26.75;;;13.55;;
44169;SDS011;29836;52.286;9.576;2023-05-07T05:35:03;24.02;;;12.68;;
44169;SDS011;29836;52.286;9.576;2023-05-07T05:37:29;25.60;;;11.73;;
44169;SDS011;29836;52.286;9.576;2023-05-07T05:39:56;25.33;;;12.40;;
44169;SDS011;29836;52.286;9.576;2023-05-07T05:42:21;22.50;;;12.60;;
44169;SDS011;29836;52.286;9.576;2023-05-07T05:44:47;26.05;;;12.48;;
44169;SDS011;29836;52.286;9.576;2023-05-07T05:47:13;22.52;;;11.82;;
44169;SDS011;29836;52.286;9.576;2023-05-07T05:49:39;23.17;;;11.75;;
44169;SDS011;29836;52.286;9.576;2023-05-07T05:52:04;26.80;;;11.98;;
44169;SDS011;29836;52.286;9.576;2023-05-07T05:54:29;19.75;;;11.15;;
44169;SDS011;29836;52.286;9.576;2023-05-07T05:56:55;23.15;;;11.68;;
44169;SDS011;29836;52.286;9.576;2023-05-07T05:59:22;23.73;;;9.73;;
44169;SDS011;29836;52.286;9.576;2023-05-07T06:01:48;19.38;;;10.57;;
44169;SDS011;29836;52.286;9.576;2023-05-07T06:04:13;20.83;;;10.23;;
44169;SDS011;29836;52.286;9.576;2023-05-07T06:06:39;16.58;;;9.63;;
44169;SDS011;29836;52.286;9.576;2023-05-07T06:09:04;15.05;;;8.95;;
44169;SDS011;29836;52.286;9.576;2023-05-07T06:11:31;16.67;;;9.43;;
44169;SDS011;29836;52.286;9.576;2023-05-07T06:13:56;17.17;;;9.02;;
44169;SDS011;29836;52.286;9.576;2023-05-07T06:16:22;16.80;;;9.18;;
44169;SDS011;29836;52.286;9.576;2023-05-07T06:18:47;18.52;;;9.48;;
44169;SDS011;29836;52.286;9.576;2023-05-07T06:21:13;17.70;;;9.40;;
44169;SDS011;29836;52.286;9.576;2023-05-07T06:23:40;14.35;;;8.77;;
44169;SDS011;29836;52.286;9.576;2023-05-07T06:26:06;15.70;;;8.98;;
44169;SDS011;29836;52.286;9.576;2023-05-07T06:28:31;15.82;;;8.50;;
44169;SDS011;29836;52.286;9.576;2023-05-07T06:31:16;16.23;;;7.95;;
44169;SDS011;29836;52.286;9.576;2023-05-07T06:33:45;15.73;;;8.65;;
44169;SDS011;29836;52.286;9.576;2023-05-07T06:36:11;11.80;;;7.45;;
44169;SDS011;29836;52.286;9.576;2023-05-07T06:38:36;12.55;;;6.85;;
44169;SDS011;29836;52.286;9.576;2023-05-07T06:41:01;13.63;;;7.93;;
44169;SDS011;29836;52.286;9.576;2023-05-07T06:43:27;13.70;;;6.80;;
44169;SDS011;29836;52.286;9.576;2023-05-07T06:45:52;13.15;;;7.50;;
44169;SDS011;29836;52.286;9.576;2023-05-07T06:48:18;11.02;;;7.15;;
44169;SDS011;29836;52.286;9.576;2023-05-07T06:50:43;14.40;;;6.60;;
44169;SDS011;29836;52.286;9.576;2023-05-07T06:53:09;12.25;;;6.93;;
44169;SDS011;29836;52.286;9.576;2023-05-07T06:55:34;11.02;;;6.20;;
44169;SDS011;29836;52.286;9.576;2023-05-07T06:58:00;10.43;;;6.22;;
44169;SDS011;29836;52.286;9.576;2023-05-07T07:00:26;9.18;;;5.63;;
44169;SDS011;29836;52.286;9.576;2023-05-07T07:02:53;7.95;;;4.88;;
44169;SDS011;29836;52.286;9.576;2023-05-07T07:05:19;10.18;;;5.82;;
44169;SDS011;29836;52.286;9.576;2023-05-07T07:07:45;10.13;;;5.97;;
44169;SDS011;29836;52.286;9.576;2023-05-07T07:10:17;9.90;;;5.20;;
44169;SDS011;29836;52.286;9.576;2023-05-07T07:12:44;9.73;;;5.35;;
44169;SDS011;29836;52.286;9.576;2023-05-07T07:15:09;9.65;;;5.85;;
44169;SDS011;29836;52.286;9.576;2023-05-07T07:17:35;10.00;;;5.55;;
44169;SDS011;29836;52.286;9.576;2023-05-07T07:20:00;10.98;;;6.05;;
44169;SDS011;29836;52.286;9.576;2023-05-07T07:22:26;12.25;;;5.60;;
44169;SDS011;29836;52.286;9.576;2023-05-07T07:24:51;11.57;;;5.80;;
44169;SDS011;29836;52.286;9.576;2023-05-07T07:27:17;9.52;;;5.13;;
44169;SDS011;29836;52.286;9.576;2023-05-07T07:29:42;9.93;;;4.70;;
44169;SDS011;29836;52.286;9.576;2023-05-07T07:32:08;7.57;;;4.47;;
44169;SDS011;29836;52.286;9.576;2023-05-07T07:34:33;8.38;;;4.82;;
44169;SDS011;29836;52.286;9.576;2023-05-07T07:36:59;8.85;;;5.32;;
44169;SDS011;29836;52.286;9.576;2023-05-07T07:39:30;8.88;;;5.30;;
44169;SDS011;29836;52.286;9.576;2023-05-07T07:41:56;9.57;;;4.50;;
44169;SDS011;29836;52.286;9.576;2023-05-07T07:44:21;10.13;;;5.95;;
44169;SDS011;29836;52.286;9.576;2023-05-07T07:46:47;9.10;;;4.97;;
44169;SDS011;29836;52.286;9.576;2023-05-07T07:49:12;9.32;;;5.15;;
44169;SDS011;29836;52.286;9.576;2023-05-07T07:51:38;9.65;;;4.88;;
44169;SDS011;29836;52.286;9.576;2023-05-07T07:54:03;6.97;;;4.50;;
44169;SDS011;29836;52.286;9.576;2023-05-07T07:56:29;8.45;;;5.40;;
44169;SDS011;29836;52.286;9.576;2023-05-07T07:58:54;10.80;;;5.72;;
44169;SDS011;29836;52.286;9.576;2023-05-07T08:01:20;10.20;;;6.35;;
44169;SDS011;29836;52.286;9.576;2023-05-07T08:03:45;9.63;;;6.00;;
44169;SDS011;29836;52.286;9.576;2023-05-07T08:06:11;8.43;;;5.45;;
44169;SDS011;29836;52.286;9.576;2023-05-07T08:08:36;9.32;;;5.32;;
44169;SDS011;29836;52.286;9.576;2023-05-07T08:11:02;10.00;;;5.82;;
44169;SDS011;29836;52.286;9.576;2023-05-07T08:13:28;13.93;;;7.55;;
44169;SDS011;29836;52.286;9.576;2023-05-07T08:15:53;13.40;;;7.45;;
44169;SDS011;29836;52.286;9.576;2023-05-07T08:18:19;11.85;;;6.72;;
44169;SDS011;29836;52.286;9.576;2023-05-07T08:20:44;11.32;;;6.38;;
44169;SDS011;29836;52.286;9.576;2023-05-07T08:23:10;10.38;;;6.22;;
44169;SDS011;29836;52.286;9.576;2023-05-07T08:25:35;10.93;;;6.15;;
44169;SDS011;29836;52.286;9.576;2023-05-07T08:28:02;9.45;;;6.00;;
44169;SDS011;29836;52.286;9.576;2023-05-07T08:30:28;12.80;;;6.50;;
44169;SDS011;29836;52.286;9.576;2023-05-07T08:32:53;12.23;;;6.88;;
44169;SDS011;29836;52.286;9.576;2023-05-07T08:35:19;12.82;;;7.65;;
44169;SDS011;29836;52.286;9.576;2023-05-07T08:37:45;11.43;;;7.60;;
44169;SDS011;29836;52.286;9.576;2023-05-07T08:40:10;12.43;;;7.00;;
44169;SDS011;29836;52.286;9.576;2023-05-07T08:42:36;13.98;;;8.20;;
44169;SDS011;29836;52.286;9.576;2023-05-07T08:45:02;12.10;;;8.35;;
44169;SDS011;29836;52.286;9.576;2023-05-07T08:47:33;12.45;;;7.25;;
44169;SDS011;29836;52.286;9.576;2023-05-07T08:50:03;14.18;;;8.13;;
44169;SDS011;29836;52.286;9.576;2023-05-07T08:52:30;15.23;;;8.15;;
44169;SDS011;29836;52.286;9.576;2023-05-07T08:54:56;12.50;;;7.28;;
44169;SDS011;29836;52.286;9.576;2023-05-07T08:57:23;10.80;;;7.10;;
44169;SDS011;29836;52.286;9.576;2023-05-07T08:59:49;11.48;;;7.65;;
44169;SDS011;29836;52.286;9.576;2023-05-07T09:02:15;11.52;;;7.15;;
44169;SDS011;29836;52.286;9.576;2023-05-07T09:04:41;12.25;;;6.68;;
44169;SDS011;29836;52.286;9.576;2023-05-07T09:07:07;13.38;;;7.63;;
44169;SDS011;29836;52.286;9.576;2023-05-07T09:09:32;13.57;;;7.22;;
44169;SDS011;29836;52.286;9.576;2023-05-07T09:11:58;10.40;;;6.50;;
44169;SDS011;29836;52.286;9.576;2023-05-07T09:14:24;10.23;;;5.88;;
44169;SDS011;29836;52.286;9.576;2023-05-07T09:16:51;11.82;;;6.85;;
44169;SDS011;29836;52.286;9.576;2023-05-07T09:19:21;13.60;;;8.00;;
44169;SDS011;29836;52.286;9.576;2023-05-07T09:21:57;13.52;;;8.20;;
44169;SDS011;29836;52.286;9.576;2023-05-07T09:24:24;14.93;;;8.82;;
44169;SDS011;29836;52.286;9.576;2023-05-07T09:26:50;14.23;;;8.48;;
44169;SDS011;29836;52.286;9.576;2023-05-07T09:29:15;13.55;;;8.73;;
44169;SDS011;29836;52.286;9.576;2023-05-07T09:31:42;12.07;;;6.90;;
44169;SDS011;29836;52.286;9.576;2023-05-07T09:34:07;12.80;;;7.15;;
44169;SDS011;29836;52.286;9.576;2023-05-07T09:36:33;10.82;;;6.13;;
44169;SDS011;29836;52.286;9.576;2023-05-07T09:38:59;10.57;;;5.90;;
44169;SDS011;29836;52.286;9.576;2023-05-07T09:41:25;10.80;;;5.45;;
44169;SDS011;29836;52.286;9.576;2023-05-07T09:43:54;10.30;;;6.32;;
44169;SDS011;29836;52.286;9.576;2023-05-07T09:46:20;13.05;;;6.68;;
44169;SDS011;29836;52.286;9.576;2023-05-07T09:48:50;9.88;;;6.28;;
44169;SDS011;29836;52.286;9.576;2023-05-07T09:51:30;13.38;;;6.63;;
44169;SDS011;29836;52.286;9.576;2023-05-07T09:54:03;9.68;;;6.47;;
44169;SDS011;29836;52.286;9.576;2023-05-07T09:56:30;11.13;;;6.85;;
44169;SDS011;29836;52.286;9.576;2023-05-07T09:58:57;11.43;;;6.63;;
44169;SDS011;29836;52.286;9.576;2023-05-07T10:01:25;10.13;;;6.53;;
44169;SDS011;29836;52.286;9.576;2023-05-07T10:03:51;12.52;;;6.97;;
44169;SDS011;29836;52.286;9.576;2023-05-07T10:06:18;10.23;;;6.22;;
44169;SDS011;29836;52.286;9.576;2023-05-07T10:08:45;11.02;;;5.72;;
44169;SDS011;29836;52.286;9.576;2023-05-07T10:11:11;10.60;;;6.32;;
44169;SDS011;29836;52.286;9.576;2023-05-07T10:13:37;9.40;;;6.10;;
44169;SDS011;29836;52.286;9.576;2023-05-07T10:16:03;12.27;;;7.00;;
44169;SDS011;29836;52.286;9.576;2023-05-07T10:18:30;11.35;;;6.13;;
44169;SDS011;29836;52.286;9.576;2023-05-07T10:21:00;11.45;;;6.78;;
44169;SDS011;29836;52.286;9.576;2023-05-07T10:23:31;11.27;;;6.75;;
44169;SDS011;29836;52.286;9.576;2023-05-07T10:25:58;10.63;;;6.30;;
44169;SDS011;29836;52.286;9.576;2023-05-07T10:28:27;15.40;;;7.43;;
44169;SDS011;29836;52.286;9.576;2023-05-07T10:33:28;11.57;;;7.57;;
44169;SDS011;29836;52.286;9.576;2023-05-07T10:35:58;12.40;;;7.43;;
44169;SDS011;29836;52.286;9.576;2023-05-07T10:38:26;11.55;;;7.00;;
44169;SDS011;29836;52.286;9.576;2023-05-07T10:40:52;13.07;;;7.15;;
44169;SDS011;29836;52.286;9.576;2023-05-07T10:43:18;12.73;;;7.35;;
44169;SDS011;29836;52.286;9.576;2023-05-07T10:45:49;11.60;;;7.22;;
44169;SDS011;29836;52.286;9.576;2023-05-07T10:51:28;14.23;;;8.20;;
44169;SDS011;29836;52.286;9.576;2023-05-07T10:56:36;14.02;;;7.68;;
44169;SDS011;29836;52.286;9.576;2023-05-07T11:04:20;11.57;;;7.90;;
44169;SDS011;29836;52.286;9.576;2023-05-07T11:07:10;12.50;;;7.40;;
44169;SDS011;29836;52.286;9.576;2023-05-07T11:15:10;10.68;;;7.70;;
44169;SDS011;29836;52.286;9.576;2023-05-07T11:17:52;11.15;;;6.90;;
44169;SDS011;29836;52.286;9.576;2023-05-07T11:23:54;13.13;;;7.10;;
44169;SDS011;29836;52.286;9.576;2023-05-07T11:26:06;14.00;;;7.28;;
44169;SDS011;29836;52.286;9.576;2023-05-07T11:28:40;14.10;;;7.70;;
44169;SDS011;29836;52.286;9.576;2023-05-07T11:31:06;11.38;;;7.45;;
44169;SDS011;29836;52.286;9.576;2023-05-07T11:33:32;14.75;;;8.60;;
44169;SDS011;29836;52.286;9.576;2023-05-07T11:36:02;10.57;;;7.38;;
44169;SDS011;29836;52.286;9.576;2023-05-07T11:38:29;11.70;;;7.88;;
44169;SDS011;29836;52.286;9.576;2023-05-07T11:40:58;12.35;;;7.60;;
44169;SDS011;29836;52.286;9.576;2023-05-07T11:43:25;10.52;;;6.75;;
44169;SDS011;29836;52.286;9.576;2023-05-07T11:45:51;12.00;;;7.20;;
44169;SDS011;29836;52.286;9.576;2023-05-07T11:48:17;10.27;;;7.05;;
44169;SDS011;29836;52.286;9.576;2023-05-07T11:53:39;11.50;;;7.60;;
44169;SDS011;29836;52.286;9.576;2023-05-07T11:56:09;11.73;;;7.40;;
44169;SDS011;29836;52.286;9.576;2023-05-07T11:58:36;11.77;;;7.72;;
44169;SDS011;29836;52.286;9.576;2023-05-07T12:01:02;9.77;;;7.07;;
44169;SDS011;29836;52.286;9.576;2023-05-07T12:03:28;12.20;;;6.95;;
44169;SDS011;29836;52.286;9.576;2023-05-07T12:05:54;9.30;;;6.60;;
44169;SDS011;29836;52.286;9.576;2023-05-07T12:08:20;10.82;;;6.93;;
44169;SDS011;29836;52.286;9.576;2023-05-07T12:10:49;9.02;;;6.65;;
44169;SDS011;29836;52.286;9.576;2023-05-07T12:13:19;12.38;;;7.05;;
44169;SDS011;29836;52.286;9.576;2023-05-07T12:15:51;11.20;;;7.13;;
44169;SDS011;29836;52.286;9.576;2023-05-07T12:18:17;9.98;;;5.57;;
44169;SDS011;29836;52.286;9.576;2023-05-07T12:20:43;10.77;;;6.68;;
44169;SDS011;29836;52.286;9.576;2023-05-07T12:23:10;13.23;;;6.57;;
44169;SDS011;29836;52.286;9.576;2023-05-07T12:25:36;9.52;;;5.80;;
44169;SDS011;29836;52.286;9.576;2023-05-07T12:28:08;9.07;;;6.35;;
44169;SDS011;29836;52.286;9.576;2023-05-07T12:30:38;10.40;;;6.80;;
44169;SDS011;29836;52.286;9.576;2023-05-07T12:33:04;9.65;;;5.68;;
44169;SDS011;29836;52.286;9.576;2023-05-07T12:35:30;10.13;;;6.15;;
44169;SDS011;29836;52.286;9.576;2023-05-07T12:37:57;9.82;;;5.55;;
44169;SDS011;29836;52.286;9.576;2023-05-07T12:40:24;9.25;;;5.88;;
44169;SDS011;29836;52.286;9.576;2023-05-07T12:43:06;10.20;;;5.35;;
44169;SDS011;29836;52.286;9.576;2023-05-07T12:45:36;9.23;;;6.30;;
44169;SDS011;29836;52.286;9.576;2023-05-07T12:48:03;10.82;;;6.47;;
44169;SDS011;29836;52.286;9.576;2023-05-07T12:50:32;8.60;;;5.53;;
44169;SDS011;29836;52.286;9.576;2023-05-07T12:52:58;8.82;;;5.70;;
44169;SDS011;29836;52.286;9.576;2023-05-07T12:55:25;8.25;;;5.47;;
44169;SDS011;29836;52.286;9.576;2023-05-07T12:57:51;8.88;;;5.55;;
44169;SDS011;29836;52.286;9.576;2023-05-07T13:00:32;7.55;;;5.60;;
44169;SDS011;29836;52.286;9.576;2023-05-07T13:03:01;8.10;;;5.28;;
44169;SDS011;29836;52.286;9.576;2023-05-07T13:05:26;8.20;;;5.28;;
44169;SDS011;29836;52.286;9.576;2023-05-07T13:07:55;6.35;;;4.70;;
44169;SDS011;29836;52.286;9.576;2023-05-07T13:10:22;8.90;;;5.07;;
44169;SDS011;29836;52.286;9.576;2023-05-07T13:12:48;7.63;;;5.32;;
44169;SDS011;29836;52.286;9.576;2023-05-07T13:15:14;6.22;;;4.55;;
44169;SDS011;29836;52.286;9.576;2023-05-07T13:17:40;6.28;;;4.65;;
44169;SDS011;29836;52.286;9.576;2023-05-07T13:20:05;9.48;;;5.28;;
44169;SDS011;29836;52.286;9.576;2023-05-07T13:22:33;8.52;;;5.35;;
44169;SDS011;29836;52.286;9.576;2023-05-07T13:24:58;9.13;;;5.85;;
44169;SDS011;29836;52.286;9.576;2023-05-07T13:27:24;11.02;;;6.45;;
44169;SDS011;29836;52.286;9.576;2023-05-07T13:29:49;8.40;;;6.25;;
44169;SDS011;29836;52.286;9.576;2023-05-07T13:32:14;15.23;;;6.45;;
44169;SDS011;29836;52.286;9.576;2023-05-07T13:34:40;9.80;;;6.32;;
44169;SDS011;29836;52.286;9.576;2023-05-07T13:37:06;9.32;;;6.43;;
44169;SDS011;29836;52.286;9.576;2023-05-07T13:39:32;10.18;;;6.22;;
44169;SDS011;29836;52.286;9.576;2023-05-07T13:41:58;14.07;;;6.20;;
44169;SDS011;29836;52.286;9.576;2023-05-07T13:44:23;13.10;;;7.35;;
44169;SDS011;29836;52.286;9.576;2023-05-07T13:46:49;10.45;;;6.43;;
44169;SDS011;29836;52.286;9.576;2023-05-07T13:49:15;15.25;;;7.32;;
44169;SDS011;29836;52.286;9.576;2023-05-07T13:51:40;10.55;;;7.15;;
44169;SDS011;29836;52.286;9.576;2023-05-07T13:54:06;11.95;;;7.35;;
44169;SDS011;29836;52.286;9.576;2023-05-07T13:56:31;10.25;;;7.22;;
44169;SDS011;29836;52.286;9.576;2023-05-07T13:58:57;11.32;;;7.18;;
44169;SDS011;29836;52.286;9.576;2023-05-07T14:01:23;9.95;;;6.43;;
44169;SDS011;29836;52.286;9.576;2023-05-07T14:03:48;9.85;;;6.93;;
44169;SDS011;29836;52.286;9.576;2023-05-07T14:06:14;10.95;;;7.22;;
44169;SDS011;29836;52.286;9.576;2023-05-07T14:08:40;13.70;;;7.20;;
44169;SDS011;29836;52.286;9.576;2023-05-07T14:11:05;12.13;;;7.30;;
44169;SDS011;29836;52.286;9.576;2023-05-07T14:13:31;8.52;;;6.35;;
44169;SDS011;29836;52.286;9.576;2023-05-07T14:15:57;9.45;;;7.05;;
44169;SDS011;29836;52.286;9.576;2023-05-07T14:18:22;9.90;;;6.80;;
44169;SDS011;29836;52.286;9.576;2023-05-07T14:20:48;11.25;;;6.60;;
44169;SDS011;29836;52.286;9.576;2023-05-07T14:23:14;11.43;;;7.03;;
44169;SDS011;29836;52.286;9.576;2023-05-07T14:25:40;11.55;;;7.25;;
44169;SDS011;29836;52.286;9.576;2023-05-07T14:28:06;10.45;;;6.95;;
44169;SDS011;29836;52.286;9.576;2023-05-07T14:30:31;9.18;;;7.20;;
44169;SDS011;29836;52.286;9.576;2023-05-07T14:32:57;10.07;;;7.30;;
44169;SDS011;29836;52.286;9.576;2023-05-07T14:35:22;9.65;;;6.97;;
44169;SDS011;29836;52.286;9.576;2023-05-07T14:37:48;10.48;;;6.47;;
44169;SDS011;29836;52.286;9.576;2023-05-07T14:40:13;10.32;;;6.78;;
44169;SDS011;29836;52.286;9.576;2023-05-07T14:42:39;9.07;;;5.90;;
44169;SDS011;29836;52.286;9.576;2023-05-07T14:45:05;11.23;;;6.47;;
44169;SDS011;29836;52.286;9.576;2023-05-07T14:47:31;12.40;;;6.47;;
44169;SDS011;29836;52.286;9.576;2023-05-07T14:49:56;8.23;;;6.15;;
44169;SDS011;29836;52.286;9.576;2023-05-07T14:52:23;10.80;;;6.10;;